• Join FlightAware (Why Join?)
  • Login
  • US Flag 
03:21PM EDT


 

Airport Tracker/Info


-or-


 

Live Flight TrackerFlight Track Log ✈ SWA718 ✈ 02-May-2013 ✈ KMDW - KOMA

Flight Track Log - Related Links

Times and Time Zones

All times are in EDT time to prevent confusion due to time zone crossing. See the SWA718 flight status page for this flight to view local times or setup timezone preferences in your user account.

Time Position Orientation Groundspeed Altitude Reporting Facility
EDT Latitude Longitude Course Direction KTS MPH feet Rate Location/Type
11:09PM 41.8167 -87.8167 270° West 231 266 4,200  Level Chicago TRACON
11:10PM 41.8786 -87.9175 310° West 241 277 8,100 2,520 Climbing Chicago Center
11:11PM 41.9100 -88.0072 295° West 276 318 10,700 2,700 Climbing Chicago Center
11:12PM 41.9114 -88.1181 271° West 299 344 13,700 3,000 Climbing Chicago Center
11:13PM 41.9164 -88.2572 273° West 314 361 16,800 2,820 Climbing Chicago Center
11:14PM 41.9181 -88.3867 271° West 351 404 19,500 2,280 Climbing Chicago Center
11:15PM 41.9025 -88.5181 261° West 360 414 21,500 1,680 Climbing Chicago Center
11:16PM 41.8869 -88.6619 262° West 385 443 23,000 720 Climbing Chicago Center
11:17PM 41.8803 -88.8106 267° West 399 459 23,000 360 Level Chicago Center
11:18PM 41.8731 -88.9592 266° West 401 461 23,800 1,560 Climbing Chicago Center
11:20PM 41.8647 -89.1064 266° West 401 461 26,200 2,160 Climbing Chicago Center
11:21PM 41.8581 -89.2586 267° West 414 476 28,200 1,620 Climbing Chicago Center
11:22PM 41.8478 -89.4142 265° West 422 486 29,600 1,800 Climbing Chicago Center
11:23PM 41.8342 -89.6039 265° West 427 491 31,900 2,160 Climbing Chicago Center
11:24PM 41.8197 -89.7600 263° West 425 489 34,100 1,980 Climbing Chicago Center
11:25PM 41.8089 -89.9075 264° West 416 479 36,000 900 Climbing Chicago Center
11:26PM 41.7975 -90.0581 264° West 410 472 36,000  Level Chicago Center
11:27PM 41.7844 -90.2058 263° West 404 465 36,000  Level Chicago Center
11:28PM 41.7700 -90.3583 263° West 412 474 36,000  Level Chicago Center
11:29PM 41.7572 -90.5081 264° West 409 471 36,000  Level Chicago Center
11:30PM 41.7442 -90.6503 263° West 402 463 36,000  Level Chicago Center
11:31PM 41.7308 -90.7978 263° West 402 463 36,000  Level Chicago Center
11:32PM 41.7144 -90.9753 263° West 402 463 36,000  Level Chicago Center
11:33PM 41.7006 -91.1225 263° West 401 461 36,000  Level Chicago Center
11:34PM 41.6861 -91.2692 263° West 400 460 36,000  Level Chicago Center
11:35PM 41.6719 -91.4178 263° West 404 465 36,000  Level Chicago Center
11:36PM 41.6578 -91.5644 263° West 401 461 36,000  Level Chicago Center
11:37PM 41.6436 -91.7125 263° West 402 463 36,000  Level Chicago Center
11:38PM 41.6286 -91.8589 262° West 400 460 36,000  Level Chicago Center
11:39PM 41.6125 -92.0050 262° West 401 461 36,000  Level Chicago Center
11:40PM 41.5975 -92.1558 262° West 407 468 36,000  Level Chicago Center
11:41PM 41.5822 -92.3031 262° West 406 467 36,000  Level Chicago Center
11:42PM 41.5667 -92.4517 262° West 407 468 36,000  Level Chicago Center
11:44PM 41.5386 -92.7078 262° West 403 464 36,000  Level Minneapolis Center
11:45PM 41.5225 -92.8539 262° West 402 463 36,000  Level Minneapolis Center
11:46PM 41.5069 -92.9994 262° West 400 460 36,000  Level Minneapolis Center
11:47PM 41.4869 -93.1706 261° West 395 455 36,000  Level Minneapolis Center
11:48PM 41.4706 -93.3178 262° West 400 460 36,000  Level Minneapolis Center
11:49PM 41.4550 -93.4619 262° West 399 459 36,000 -240 Level Minneapolis Center
11:50PM 41.4358 -93.6092 260° West 403 464 35,500 -2,100 Descending Minneapolis Center
11:51PM 41.4217 -93.7800 264° West 398 458 31,400 -3,480 Descending Minneapolis Center
11:52PM 41.4106 -93.9306 264° West 408 470 28,500 -2,820 Descending Minneapolis Center
11:53PM 41.3978 -94.0767 263° West 405 466 25,800 -2,580 Descending Minneapolis Center
11:54PM 41.3886 -94.2261 265° West 395 455 23,300 -2,280 Descending Minneapolis Center
11:55PM 41.3806 -94.3672 266° West 387 445 21,200 -2,040 Descending Minneapolis Center
11:56PM 41.3736 -94.5033 266° West 375 432 19,200 -1,980 Descending Minneapolis Center
11:57PM 41.3786 -94.6589 273° West 362 417 17,300 -1,980 Descending Minneapolis Center
11:57PM 41.3728 -94.7183 263° West 354 407 16,300 -1,260 Descending Minneapolis Center
11:58PM 41.3522 -94.7617 238° Southwest 351 404 16,000 -240 Descending Minneapolis Center
11:58PM 41.3567 -94.8400 274° West 333 383 16,100  Climbing Minneapolis Center
11:59PM 41.3406 -94.8583 221° Southwest 339 390 16,000  Descending Minneapolis Center
11:59PM 41.3450 -94.9636 273° West 334 384 16,100 -300 Climbing Minneapolis Center
12:00AM 41.3297 -95.0078 245° Southwest 338 389 15,700 -1,680 Descending Minneapolis Center
12:00AM 41.3297 -95.0964 270° West 336 387 14,400 -2,760 Descending Minneapolis Center
12:01AM 41.3089 -95.1525 244° Southwest 332 382 12,900 -3,000 Descending Minneapolis Center
12:01AM 41.3089 -95.2128 270° West 320 368 11,400 -2,880 Descending Minneapolis Center
12:02AM 41.2925 -95.2703 249° West 326 375 10,000 -1,500 Descending Minneapolis Center
12:02AM 41.2942 -95.3314 272° West 326 375 9,900 -1,020 Descending Minneapolis Center
12:03AM 41.2789 -95.3828 248° West 320 368 9,000 -1,620 Descending Minneapolis Center
12:03AM 41.2783 -95.4331 269° West 276 318 8,300 -1,740 Descending Minneapolis Center
12:04AM 41.2656 -95.4817 251° West 297 342 7,300 -1,800 Descending Minneapolis Center
12:04AM 41.2644 -95.5319 268° West 269 310 6,500 -1,920 Descending Minneapolis Center
12:05AM 41.2525 -95.5789 251° West 280 322 5,400 -2,100 Descending Minneapolis Center
12:06AM 41.2469 -95.6422 263° West 271 312 4,200 -1,680 Descending Minneapolis Center
12:06AM 41.2394 -95.6764 254° West 272 313 3,400 -1,200 Descending Minneapolis Center
12:07AM 41.2322 -95.7356 261° West 259 298 3,000 -600 Descending Minneapolis Center
12:07AM 41.2272 -95.7667 258° West 262 302 2,800 -120 Descending Minneapolis Center
12:08AM 41.2228 -95.8114 262° West 192 221 2,900 -420 Climbing Minneapolis Center
12:08AM 41.2342 -95.8308 308° West 186 214 2,400 -660 Descending Minneapolis Center
12:09AM 41.2481 -95.8472 318° Northwest 105 121 2,200 -420 Descending Minneapolis Center
12:09AM 41.2564 -95.8514 339° North 147 169 2,000 -720 Descending Minneapolis Center
12:10AM 41.2772 -95.8744 320° Northwest 117 135 1,500 -900 Descending Minneapolis Center
12:10AM 41.2900 -95.8836 332° Northwest 130 150 1,100 -720 Descending Minneapolis Center
12:12AM 41.3000 -95.8833 270° West  Level FlightAware Approximate